createdAt,value
2018-07-07T00:00:20.800Z,101944.01
2018-07-07T00:01:26.208Z,101946.05
2018-07-07T00:02:31.613Z,101944.87
2018-07-07T00:03:37.024Z,101952.07
2018-07-07T00:04:42.433Z,101951.97
2018-07-07T00:05:47.847Z,101950.28
2018-07-07T00:06:53.258Z,101952.82
2018-07-07T00:07:58.673Z,101948.15
2018-07-07T00:09:04.080Z,101952.53
2018-07-07T00:10:09.494Z,101950.96
2018-07-07T00:11:14.902Z,101952.97
2018-07-07T00:12:20.308Z,101954.65
2018-07-07T00:13:25.715Z,101951.13
2018-07-07T00:14:31.115Z,101948.37
2018-07-07T00:15:36.531Z,101949.67
2018-07-07T00:16:41.937Z,101946.57
2018-07-07T00:17:47.350Z,101952.05
2018-07-07T00:18:53.747Z,101952.14
2018-07-07T00:19:59.173Z,101951.97
2018-07-07T00:21:04.584Z,101958
2018-07-07T00:22:09.989Z,101951.64
2018-07-07T00:23:15.393Z,101952.2
2018-07-07T00:24:20.801Z,101956.1
2018-07-07T00:25:26.212Z,101955.08
2018-07-07T00:26:31.619Z,101958.6
2018-07-07T00:27:38.016Z,101959.14
2018-07-07T00:28:43.419Z,101960.39
2018-07-07T00:29:48.822Z,101955.37
2018-07-07T00:30:54.241Z,101956.89
2018-07-07T00:31:59.650Z,101958.02
2018-07-07T00:33:05.055Z,101963.91
2018-07-07T00:34:10.461Z,101962.51
2018-07-07T00:35:16.870Z,101962.62
2018-07-07T00:36:22.275Z,101964.57
2018-07-07T00:37:27.676Z,101964.01
2018-07-07T00:38:33.084Z,101965.88
2018-07-07T00:39:38.491Z,101967.01
2018-07-07T00:40:43.909Z,101967.33
2018-07-07T00:41:49.312Z,101968.25
2018-07-07T00:42:54.724Z,101967.2
2018-07-07T00:44:00.126Z,101966.04
2018-07-07T00:45:05.543Z,101964.9
2018-07-07T00:46:10.960Z,101968.39
2018-07-07T00:47:16.366Z,101967.09
2018-07-07T00:48:21.766Z,101966.92
2018-07-07T00:49:27.179Z,101970.46
2018-07-07T00:50:32.593Z,101971.31
2018-07-07T00:51:37.996Z,101970.37
2018-07-07T00:52:43.425Z,101967.79
2018-07-07T00:53:48.824Z,101970.71
2018-07-07T00:54:54.227Z,101970.31
2018-07-07T00:55:59.643Z,101970.03
2018-07-07T00:57:05.052Z,101969.7
2018-07-07T00:58:10.464Z,101971.45
2018-07-07T00:59:15.865Z,101973.96
2018-07-07T01:00:21.270Z,101975.53
2018-07-07T01:01:26.697Z,101973.85
2018-07-07T01:02:32.102Z,101978.79
2018-07-07T01:03:37.504Z,101974.23
2018-07-07T01:04:42.906Z,101980.01
2018-07-07T01:05:48.330Z,101983.21
2018-07-07T01:06:53.728Z,101984.07
2018-07-07T01:07:59.132Z,101983.29
2018-07-07T01:09:04.544Z,101980.82
2018-07-07T01:10:09.969Z,101980.35
2018-07-07T01:11:15.399Z,101974.71
2018-07-07T01:12:20.805Z,101980.36
2018-07-07T01:13:26.204Z,101982.84
2018-07-07T01:14:31.610Z,101977.03
2018-07-07T01:15:37.019Z,101978.62
2018-07-07T01:16:42.429Z,101979.06
2018-07-07T01:17:47.832Z,101981.01
2018-07-07T01:18:53.247Z,101978.77
2018-07-07T01:19:58.650Z,101980.6
2018-07-07T01:21:04.068Z,101975.56
2018-07-07T01:22:09.482Z,101981.35
2018-07-07T01:23:15.885Z,101978.3
2018-07-07T01:24:21.278Z,101977.63
2018-07-07T01:25:26.685Z,101974.59
2018-07-07T01:26:33.093Z,101979.53
2018-07-07T01:27:38.508Z,101973.48
2018-07-07T01:28:43.920Z,101975.34
2018-07-07T01:29:49.319Z,101974.92
2018-07-07T01:30:54.727Z,101977.45
2018-07-07T01:32:00.143Z,101976.65
2018-07-07T01:33:05.553Z,101973.19
2018-07-07T01:34:10.968Z,101974.25
2018-07-07T01:35:16.371Z,101974.71
2018-07-07T01:36:21.795Z,101974.71
2018-07-07T01:37:27.202Z,101973.75
2018-07-07T01:38:32.606Z,101974.76
2018-07-07T01:39:52.924Z,101974.87
2018-07-07T01:40:58.329Z,101974.3
2018-07-07T01:42:03.743Z,101976.32
2018-07-07T01:43:09.150Z,101971.95
2018-07-07T01:44:14.557Z,101972.73
2018-07-07T01:45:19.958Z,101972.85
2018-07-07T01:46:26.351Z,101971.44
2018-07-07T01:47:31.777Z,101969
2018-07-07T01:48:37.213Z,101973.04
2018-07-07T01:49:42.583Z,101973.27
2018-07-07T01:50:47.990Z,101971.54
2018-07-07T01:51:53.421Z,101973.23
2018-07-07T01:52:58.820Z,101971.7
2018-07-07T01:54:04.224Z,101971.16
2018-07-07T01:55:10.633Z,101970.29
2018-07-07T01:56:16.040Z,101973.28
2018-07-07T01:57:22.452Z,101970.93
2018-07-07T01:58:27.854Z,101972.5
2018-07-07T01:59:33.263Z,101968.85
2018-07-07T02:00:38.672Z,101970.6
2018-07-07T02:01:44.080Z,101971.15
2018-07-07T02:02:50.504Z,101972.63
2018-07-07T02:03:55.906Z,101970.6
2018-07-07T02:05:01.310Z,101974.2
2018-07-07T02:06:06.711Z,101971.25
2018-07-07T02:07:12.146Z,101973.01
2018-07-07T02:08:17.557Z,101972.92
2018-07-07T02:09:22.963Z,101978.37
2018-07-07T02:10:28.423Z,101976.8
2018-07-07T02:11:33.778Z,101979.07
2018-07-07T02:12:39.195Z,101975.71
2018-07-07T02:13:44.594Z,101977.95
2018-07-07T02:14:49.996Z,101980.87
2018-07-07T02:15:55.407Z,101980.96
2018-07-07T02:17:00.848Z,101984.73
2018-07-07T02:18:06.249Z,101984.57
2018-07-07T02:19:11.658Z,101980.39
2018-07-07T02:20:17.062Z,101978.09
2018-07-07T02:21:22.468Z,101979.78
2018-07-07T02:22:27.882Z,101978.06
2018-07-07T02:23:33.289Z,101980.64
2018-07-07T02:24:38.692Z,101987.99
2018-07-07T02:25:44.099Z,101983.59
2018-07-07T02:26:49.512Z,101983.15
2018-07-07T02:27:54.929Z,101987.24
2018-07-07T02:29:00.335Z,101988.68
2018-07-07T02:30:05.740Z,101986.94
2018-07-07T02:31:11.156Z,101986.54
2018-07-07T02:32:16.566Z,101986.03
2018-07-07T02:33:21.981Z,101988.08
2018-07-07T02:34:27.389Z,101987.84
2018-07-07T02:35:32.789Z,101981.28
2018-07-07T02:36:38.199Z,101983.6
2018-07-07T02:37:43.617Z,101980.73
2018-07-07T02:38:49.017Z,101981.84
2018-07-07T02:39:54.421Z,101980.39
2018-07-07T02:40:59.824Z,101980.77
2018-07-07T02:42:05.237Z,101981.38
2018-07-07T02:43:10.645Z,101983.4
2018-07-07T02:44:16.049Z,101979.19
2018-07-07T02:45:21.455Z,101985.25
2018-07-07T02:46:26.962Z,101980.68
2018-07-07T02:47:32.289Z,101980.39
2018-07-07T02:48:37.704Z,101981.47
2018-07-07T02:49:44.092Z,101978.84
2018-07-07T02:50:49.506Z,101978.15
2018-07-07T02:51:54.894Z,101976.31
2018-07-07T02:53:00.317Z,101974.39
2018-07-07T02:54:05.711Z,101978.99
2018-07-07T02:55:11.110Z,101983.71
2018-07-07T02:56:16.515Z,101980.4
2018-07-07T02:57:21.917Z,101981.34
2018-07-07T02:58:27.330Z,101981.2
2018-07-07T02:59:32.734Z,101988.51
2018-07-07T03:00:38.140Z,101985.87
2018-07-07T03:01:44.547Z,101984.34
2018-07-07T03:02:49.941Z,101988.55
2018-07-07T03:03:55.358Z,101985.45
2018-07-07T03:05:00.762Z,101988.4
2018-07-07T03:06:06.169Z,101989.82
2018-07-07T03:07:11.568Z,101991.52
2018-07-07T03:08:16.973Z,101992.23
2018-07-07T03:09:22.389Z,101994.46
2018-07-07T03:10:27.790Z,101990.85
2018-07-07T03:11:33.200Z,101988.98
2018-07-07T03:12:38.603Z,101990.39
2018-07-07T03:13:44.018Z,101990.85
2018-07-07T03:14:49.426Z,101992.9
2018-07-07T03:15:54.829Z,101995.84
2018-07-07T03:17:01.226Z,101995.02
2018-07-07T03:18:06.632Z,101995.35
2018-07-07T03:19:12.058Z,101993.21
2018-07-07T03:20:17.448Z,101995.34
2018-07-07T03:21:22.855Z,101999.17
2018-07-07T03:22:28.251Z,101995.17
2018-07-07T03:23:34.650Z,102003.81
2018-07-07T03:24:40.059Z,102005.59
2018-07-07T03:25:45.474Z,102000.97
2018-07-07T03:26:50.876Z,102000.23
2018-07-07T03:27:56.290Z,102003.32
2018-07-07T03:29:01.711Z,102005.72
2018-07-07T03:30:07.125Z,102006.1
2018-07-07T03:31:12.524Z,102010.48
2018-07-07T03:32:17.928Z,102005.21
2018-07-07T03:33:23.337Z,102009.21
2018-07-07T03:34:29.747Z,102008.1
2018-07-07T03:35:35.153Z,102012.17
2018-07-07T03:36:40.563Z,102011.23
2018-07-07T03:37:45.969Z,102008.92
2018-07-07T03:38:51.373Z,102008.17
2018-07-07T03:39:56.795Z,102011.2
2018-07-07T03:41:02.198Z,102015.41
2018-07-07T03:42:07.618Z,102013.6
2018-07-07T03:43:13.003Z,102009.63
2018-07-07T03:44:18.444Z,102010.96
2018-07-07T03:45:23.838Z,102011.57
2018-07-07T03:46:29.244Z,102016.28
2018-07-07T03:47:34.646Z,102017.03
2018-07-07T03:48:40.056Z,102013.56
2018-07-07T03:49:45.467Z,102016.87
2018-07-07T03:50:50.869Z,102019.06
2018-07-07T03:51:56.276Z,102013.62
2018-07-07T03:53:01.687Z,102018.98
2018-07-07T03:54:07.095Z,102017.54
2018-07-07T03:55:12.508Z,102019.93
2018-07-07T03:56:17.911Z,102022.45
2018-07-07T03:57:23.322Z,102016.87
2018-07-07T03:58:28.731Z,102021.42
2018-07-07T03:59:34.151Z,102023.09
2018-07-07T04:00:39.547Z,102022.81
2018-07-07T04:01:44.951Z,102021.17
2018-07-07T04:02:50.359Z,102019
2018-07-07T04:03:55.762Z,102027.9
2018-07-07T04:05:01.178Z,102026.21
2018-07-07T04:06:06.589Z,102026.01
2018-07-07T04:07:12.053Z,102033.39
2018-07-07T04:08:17.403Z,102032.39
2018-07-07T04:09:22.822Z,102028.06
2018-07-07T04:10:28.227Z,102034.35
2018-07-07T04:11:33.632Z,102033.46
2018-07-07T04:12:39.036Z,102035.07
2018-07-07T04:13:44.440Z,102038.42
2018-07-07T04:14:49.860Z,102039.54
2018-07-07T04:15:55.267Z,102037.03
2018-07-07T04:17:00.662Z,102042.12
2018-07-07T04:18:06.065Z,102046.65
2018-07-07T04:19:11.468Z,102043.81
2018-07-07T04:20:16.883Z,102046.28
2018-07-07T04:21:22.295Z,102050.27
2018-07-07T04:22:27.697Z,102051.5
2018-07-07T04:23:33.101Z,102051.95
2018-07-07T04:24:38.535Z,102053.95
2018-07-07T04:25:43.946Z,102054.63
2018-07-07T04:26:49.356Z,102053.07
2018-07-07T04:27:54.758Z,102052.9
2018-07-07T04:29:00.166Z,102053.95
2018-07-07T04:30:05.574Z,102053.9
2018-07-07T04:31:10.979Z,102053.24
2018-07-07T04:32:16.379Z,102052.73
2018-07-07T04:33:21.788Z,102050.15
2018-07-07T04:34:27.189Z,102052.34
2018-07-07T04:35:32.603Z,102049.75
2018-07-07T04:36:38.010Z,102051
2018-07-07T04:37:43.418Z,102052.38
2018-07-07T04:38:48.834Z,102053.79
2018-07-07T04:39:54.268Z,102055.39
2018-07-07T04:40:59.673Z,102056.57
2018-07-07T04:42:05.081Z,102052.63
2018-07-07T04:43:10.479Z,102049.53
2018-07-07T04:44:15.881Z,102051.48
2018-07-07T04:45:21.297Z,102048.37
2018-07-07T04:46:26.704Z,102056.35
2018-07-07T04:47:32.114Z,102054.59
2018-07-07T04:48:37.517Z,102058.12
2018-07-07T04:49:42.920Z,102058.35
2018-07-07T04:50:48.384Z,102058.29
2018-07-07T04:51:53.741Z,102059.64
2018-07-07T04:52:59.145Z,102062.73
2018-07-07T04:54:04.552Z,102063.24
2018-07-07T04:55:09.977Z,102061.7
2018-07-07T04:56:15.389Z,102065.78
2018-07-07T04:57:20.795Z,102067.06
2018-07-07T04:58:26.215Z,102067.84
2018-07-07T04:59:31.621Z,102067.12
2018-07-07T05:00:37.033Z,102062.95
2018-07-07T05:01:43.431Z,102055.64
2018-07-07T05:02:48.832Z,102064.02
2018-07-07T05:03:54.237Z,102063.01
2018-07-07T05:04:59.645Z,102060.03
2018-07-07T05:06:05.064Z,102063.63
2018-07-07T05:07:10.473Z,102060.87
2018-07-07T05:08:15.876Z,102068.26
2018-07-07T05:09:21.277Z,102066.31
2018-07-07T05:10:26.688Z,102067.17
2018-07-07T05:11:32.106Z,102068.15
2018-07-07T05:12:37.514Z,102071.76
2018-07-07T05:13:43.914Z,102069.29
2018-07-07T05:14:50.313Z,102066.69
2018-07-07T05:15:55.745Z,102068.46
2018-07-07T05:17:01.150Z,102067.32
2018-07-07T05:18:06.553Z,102063.48
2018-07-07T05:19:11.968Z,102072.06
2018-07-07T05:20:17.369Z,102069.5
2018-07-07T05:21:22.800Z,102071.03
2018-07-07T05:22:28.209Z,102075.09
2018-07-07T05:23:33.613Z,102072.28
2018-07-07T05:24:39.017Z,102076.29
2018-07-07T05:25:44.423Z,102077.98
2018-07-07T05:26:49.838Z,102076.56
2018-07-07T05:27:55.241Z,102080.51
2018-07-07T05:29:00.649Z,102081.43
2018-07-07T05:30:06.055Z,102076.81
2018-07-07T05:31:11.480Z,102075.2
2018-07-07T05:32:16.883Z,102074.89
2018-07-07T05:33:22.285Z,102073.4
2018-07-07T05:34:27.696Z,102074.41
2018-07-07T05:35:33.119Z,102078.42
2018-07-07T05:36:38.536Z,102073.93
2018-07-07T05:37:43.942Z,102080.78
2018-07-07T05:38:49.345Z,102078.6
2018-07-07T05:39:54.754Z,102080.64
2018-07-07T05:41:00.161Z,102075.98
2018-07-07T05:42:05.575Z,102078.28
2018-07-07T05:43:10.982Z,102079.09
2018-07-07T05:44:16.390Z,102085.04
2018-07-07T05:45:21.794Z,102082.76
2018-07-07T05:46:28.208Z,102083.83
2018-07-07T05:47:33.607Z,102081.56
2018-07-07T05:48:39.016Z,102075.32
2018-07-07T05:49:44.424Z,102079.22
2018-07-07T05:50:49.832Z,102079.1
2018-07-07T05:51:55.247Z,102077.28
2018-07-07T05:53:00.655Z,102080.48
2018-07-07T05:54:06.066Z,102079.07
2018-07-07T05:55:12.457Z,102080.6
2018-07-07T05:56:17.863Z,102076.5
2018-07-07T05:57:23.301Z,102080.89
2018-07-07T05:58:28.691Z,102077.17
2018-07-07T05:59:34.094Z,102080.17
2018-07-07T06:00:39.497Z,102082.98
2018-07-07T06:01:44.929Z,102079.55
2018-07-07T06:02:50.332Z,102081.37
2018-07-07T06:03:55.742Z,102078.71
2018-07-07T06:05:01.179Z,102082.11
2018-07-07T06:06:06.583Z,102084.06
2018-07-07T06:07:11.999Z,102082.05
2018-07-07T06:08:17.402Z,102083.92
2018-07-07T06:09:22.812Z,102085.32
2018-07-07T06:10:28.218Z,102084.34
2018-07-07T06:11:33.629Z,102087.18
2018-07-07T06:12:39.048Z,102089.87
2018-07-07T06:13:44.448Z,102090.28
2018-07-07T06:14:49.854Z,102088.25
2018-07-07T06:15:55.264Z,102087.39
2018-07-07T06:17:00.699Z,102083.81
2018-07-07T06:18:06.101Z,102085.03
2018-07-07T06:19:11.504Z,102082.95
2018-07-07T06:20:16.906Z,102083.28
2018-07-07T06:21:22.314Z,102086.57
2018-07-07T06:22:27.731Z,102085.5
2018-07-07T06:23:33.136Z,102086.71
2018-07-07T06:24:38.542Z,102084.05
2018-07-07T06:25:43.950Z,102084.48
2018-07-07T06:26:49.445Z,102082.95
2018-07-07T06:27:54.768Z,102082.85
2018-07-07T06:29:00.172Z,102079.57
2018-07-07T06:30:05.592Z,102087.76
2018-07-07T06:31:10.994Z,102084.5
2018-07-07T06:32:16.420Z,102085.39
2018-07-07T06:33:21.835Z,102084.48
2018-07-07T06:34:27.248Z,102085.26
2018-07-07T06:35:32.659Z,102086
2018-07-07T06:36:38.065Z,102080.33
2018-07-07T06:37:43.485Z,102076.71
2018-07-07T06:38:48.909Z,102081.66
2018-07-07T06:39:54.322Z,102081.15
2018-07-07T06:41:00.728Z,102081.17
2018-07-07T06:42:06.120Z,102081.04
2018-07-07T06:43:11.550Z,102081.6
2018-07-07T06:44:16.950Z,102081.49
2018-07-07T06:45:22.357Z,102082.68
2018-07-07T06:46:27.776Z,102082.46
2018-07-07T06:47:33.207Z,102084.49
2018-07-07T06:48:38.610Z,102087.81
2018-07-07T06:49:44.023Z,102087.16
2018-07-07T06:50:49.437Z,102088.14
2018-07-07T06:51:54.844Z,102094.32
2018-07-07T06:53:00.266Z,102092.35
2018-07-07T06:54:05.702Z,102093.39
2018-07-07T06:55:11.077Z,102096.5
2018-07-07T06:56:16.486Z,102095.34
2018-07-07T06:57:21.894Z,102098.32
2018-07-07T06:58:27.322Z,102097.07
2018-07-07T06:59:32.746Z,102100.21
2018-07-07T07:00:38.144Z,102101.33
2018-07-07T07:01:43.556Z,102100.84
2018-07-07T07:02:48.969Z,102105.1
2018-07-07T07:03:54.375Z,102102.29
2018-07-07T07:04:59.785Z,102098.82
2018-07-07T07:06:05.189Z,102102.75
2018-07-07T07:07:10.592Z,102098.48
2018-07-07T07:08:16.014Z,102104.81
2018-07-07T07:09:21.417Z,102100.27
2018-07-07T07:10:26.817Z,102097.43
2018-07-07T07:11:32.224Z,102096.64
2018-07-07T07:12:37.641Z,102104.14
2018-07-07T07:13:43.057Z,102103.43
2018-07-07T07:14:48.466Z,102106.7
2018-07-07T07:15:53.869Z,102106.31
2018-07-07T07:16:59.275Z,102103.34
2018-07-07T07:18:04.703Z,102103.01
2018-07-07T07:19:10.124Z,102098.71
2018-07-07T07:20:15.528Z,102099.68
2018-07-07T07:21:20.933Z,102101.1
2018-07-07T07:22:26.335Z,102100.96
2018-07-07T07:23:31.752Z,102096.39
2018-07-07T07:24:37.165Z,102101.57
2018-07-07T07:25:43.564Z,102109.96
2018-07-07T07:26:49.960Z,102106.58
2018-07-07T07:27:55.365Z,102104.99
2018-07-07T07:29:00.787Z,102105.34
2018-07-07T07:30:06.190Z,102106.9
2018-07-07T07:31:11.591Z,102105.44
2018-07-07T07:32:16.996Z,102105.36
2018-07-07T07:33:22.399Z,102105.07
2018-07-07T07:34:27.830Z,102110.59
2018-07-07T07:35:33.214Z,102109.8
2018-07-07T07:36:38.626Z,102105.15
2018-07-07T07:37:44.036Z,102103.01
2018-07-07T07:38:49.461Z,102110.1
2018-07-07T07:39:54.868Z,102107.18
2018-07-07T07:41:00.271Z,102105.93
2018-07-07T07:42:05.685Z,102109
2018-07-07T07:43:11.104Z,102110.17
2018-07-07T07:44:17.518Z,102110.46
2018-07-07T07:45:22.921Z,102114.35
2018-07-07T07:46:28.325Z,102111.48
2018-07-07T07:47:33.742Z,102112.53
2018-07-07T07:48:39.148Z,102112.78
2018-07-07T07:49:44.556Z,102112.37
2018-07-07T07:50:49.962Z,102109.82
2018-07-07T07:51:55.378Z,102111.84
2018-07-07T07:53:00.785Z,102112.11
2018-07-07T07:54:07.194Z,102106.42
2018-07-07T07:55:12.641Z,102108.28
2018-07-07T07:56:18.043Z,102109.62
2018-07-07T07:57:23.449Z,102107.57
2018-07-07T07:58:28.853Z,102108.71
2018-07-07T07:59:34.265Z,102106.55
2018-07-07T08:00:39.670Z,102109.33
2018-07-07T08:01:45.082Z,102109.79
2018-07-07T08:02:50.487Z,102105.84
2018-07-07T08:03:56.888Z,102104.55
2018-07-07T08:05:02.303Z,102101.51
2018-07-07T08:06:07.707Z,102101.79
2018-07-07T08:07:13.113Z,102108
2018-07-07T08:08:18.517Z,102105.56
2018-07-07T08:09:23.927Z,102099.24
2018-07-07T08:10:29.342Z,102102.25
2018-07-07T08:11:34.751Z,102099.5
2018-07-07T08:12:41.152Z,102101.04
2018-07-07T08:13:46.560Z,102097.82
2018-07-07T08:14:51.983Z,102091.07
2018-07-07T08:15:57.390Z,102097.75
2018-07-07T08:17:02.797Z,102094.96
2018-07-07T08:18:08.203Z,102094.62
2018-07-07T08:19:13.608Z,102093.89
2018-07-07T08:20:19.032Z,102097.48
2018-07-07T08:21:24.434Z,102102.39
2018-07-07T08:22:29.840Z,102099.48
2018-07-07T08:23:35.240Z,102096.78
2018-07-07T08:24:41.648Z,102096.23
2018-07-07T08:25:47.066Z,102099.35
2018-07-07T08:26:52.473Z,102095.18
2018-07-07T08:27:57.879Z,102098.33
2018-07-07T08:29:03.296Z,102096.43
2018-07-07T08:30:08.721Z,102093.59
2018-07-07T08:31:14.124Z,102093.71
2018-07-07T08:32:19.529Z,102098.21
2018-07-07T08:33:24.933Z,102098.76
2018-07-07T08:34:30.378Z,102101.62
2018-07-07T08:35:36.635Z,102104.78
2018-07-07T08:36:42.053Z,102100
2018-07-07T08:37:47.464Z,102098.79
2018-07-07T08:38:52.886Z,102099.31
2018-07-07T08:39:58.298Z,102097.45
2018-07-07T08:41:03.707Z,102096.67
2018-07-07T08:42:09.189Z,102096.65
2018-07-07T08:43:14.517Z,102095.81
2018-07-07T08:44:19.922Z,102099.53
2018-07-07T08:45:26.317Z,102092.93
2018-07-07T08:46:31.747Z,102097.62
2018-07-07T08:47:37.151Z,102096.63
2018-07-07T08:48:42.559Z,102094.24
2018-07-07T08:49:47.964Z,102091.7
2018-07-07T08:50:53.378Z,102092.38
2018-07-07T08:51:58.790Z,102094.09
2018-07-07T08:53:04.197Z,102093.38
2018-07-07T08:54:09.600Z,102092.33
2018-07-07T08:55:15.008Z,102092.53
2018-07-07T08:56:20.423Z,102096.84
2018-07-07T08:57:25.829Z,102092.82
2018-07-07T08:58:31.232Z,102089.87
2018-07-07T08:59:36.640Z,102093.53
2018-07-07T09:00:42.043Z,102093.53
2018-07-07T09:01:47.478Z,102094.06
2018-07-07T09:02:52.894Z,102090.48
2018-07-07T09:03:58.290Z,102088.66
2018-07-07T09:05:03.696Z,102091.15
2018-07-07T09:06:09.111Z,102095.78
2018-07-07T09:07:14.514Z,102099
2018-07-07T09:08:20.910Z,102090.06
2018-07-07T09:09:26.318Z,102089.01
2018-07-07T09:10:31.726Z,102077.32
2018-07-07T09:11:37.136Z,102087.91
2018-07-07T09:12:42.541Z,102089.21
2018-07-07T09:13:47.947Z,102096.92
2018-07-07T09:14:53.353Z,102088.38
2018-07-07T09:15:58.760Z,102084.89
2018-07-07T09:17:04.170Z,102085.98
2018-07-07T09:18:09.576Z,102077.42
2018-07-07T09:19:14.974Z,102081.24
2018-07-07T09:20:20.375Z,102076.9
2018-07-07T09:21:25.792Z,102074.21
2018-07-07T09:22:31.198Z,102077.65
2018-07-07T09:23:36.605Z,102074.96
2018-07-07T09:24:42.018Z,102075.4
2018-07-07T09:25:47.436Z,102072
2018-07-07T09:26:52.863Z,102069.98
2018-07-07T09:27:58.265Z,102076.68
2018-07-07T09:29:03.675Z,102072.82
2018-07-07T09:30:09.078Z,102072.22
2018-07-07T09:31:14.481Z,102074.62
2018-07-07T09:32:19.900Z,102074.17
2018-07-07T09:33:25.301Z,102070.32
2018-07-07T09:34:30.705Z,102066.27
2018-07-07T09:35:36.116Z,102068.58
2018-07-07T09:36:41.536Z,102071.95
2018-07-07T09:37:46.949Z,102064.48
2018-07-07T09:38:52.406Z,102062.92
2018-07-07T09:39:57.761Z,102065.81
2018-07-07T09:41:03.181Z,102062.02
2018-07-07T09:42:08.582Z,102062.73
2018-07-07T09:43:13.986Z,102056.43
2018-07-07T09:44:19.396Z,102062.32
2018-07-07T09:45:24.803Z,102062.1
2018-07-07T09:46:30.245Z,102063.31
2018-07-07T09:47:35.657Z,102068.51
2018-07-07T09:48:41.070Z,102067.59
2018-07-07T09:49:46.471Z,102067.28
2018-07-07T09:50:51.874Z,102066.7
2018-07-07T09:51:57.290Z,102061.96
2018-07-07T09:53:02.695Z,102062.83
2018-07-07T09:54:08.102Z,102055.01
2018-07-07T09:55:13.508Z,102059.57
2018-07-07T09:56:18.956Z,102064.6
2018-07-07T09:57:24.334Z,102061.65
2018-07-07T09:58:29.738Z,102059.45
2018-07-07T09:59:35.143Z,102056.39
2018-07-07T10:00:40.551Z,102063.32
2018-07-07T10:01:45.964Z,102062.93
2018-07-07T10:02:51.377Z,102061.33
2018-07-07T10:03:56.777Z,102059.7
2018-07-07T10:05:02.186Z,102058.21
2018-07-07T10:06:07.590Z,102068.15
2018-07-07T10:07:13.007Z,102062.79
2018-07-07T10:08:18.413Z,102059.14
2018-07-07T10:09:23.824Z,102065.29
2018-07-07T10:10:29.230Z,102064.92
2018-07-07T10:11:34.641Z,102068.1
2018-07-07T10:12:40.068Z,102064.73
2018-07-07T10:13:45.477Z,102063.85
2018-07-07T10:14:50.882Z,102062.46
2018-07-07T10:15:57.279Z,102058.92
2018-07-07T10:17:02.685Z,102059.57
2018-07-07T10:18:08.114Z,102053.47
2018-07-07T10:19:13.520Z,102058.1
2018-07-07T10:20:18.927Z,102058.93
2018-07-07T10:21:24.337Z,102060.81
2018-07-07T10:22:29.750Z,102060.29
2018-07-07T10:23:35.165Z,102057.24
2018-07-07T10:24:40.572Z,102060.64
2018-07-07T10:25:45.978Z,102059.29
2018-07-07T10:26:51.378Z,102060.57
2018-07-07T10:27:56.799Z,102062.92
2018-07-07T10:29:02.205Z,102063.25
2018-07-07T10:30:07.608Z,102067.61
2018-07-07T10:31:13.019Z,102060.46
2018-07-07T10:32:18.425Z,102057.42
2018-07-07T10:33:23.842Z,102060.14
2018-07-07T10:34:29.247Z,102057.49
2018-07-07T10:35:34.650Z,102060.29
2018-07-07T10:36:40.055Z,102064.64
2018-07-07T10:37:47.442Z,102062.98
2018-07-07T10:38:52.872Z,102059.55
2018-07-07T10:39:58.280Z,102062
2018-07-07T10:41:03.682Z,102056.81
2018-07-07T10:42:09.088Z,102061.71
2018-07-07T10:43:14.503Z,102064.9
2018-07-07T10:44:19.912Z,102060.2
2018-07-07T10:45:25.341Z,102055.39
2018-07-07T10:46:30.720Z,102059.31
2018-07-07T10:47:36.128Z,102060.1
2018-07-07T10:48:41.559Z,102062.49
2018-07-07T10:49:46.965Z,102063.46
2018-07-07T10:50:52.370Z,102055.75
2018-07-07T10:51:57.783Z,102059.64
2018-07-07T10:53:03.241Z,102068.92
2018-07-07T10:54:08.607Z,102069.82
2018-07-07T10:55:14.011Z,102064.71
2018-07-07T10:56:19.413Z,102062.73
2018-07-07T10:57:24.825Z,102060.75
2018-07-07T10:58:30.247Z,102057.15
2018-07-07T10:59:35.649Z,102058.42
2018-07-07T11:00:41.059Z,102064.8
2018-07-07T11:01:47.453Z,102063.8
2018-07-07T11:02:52.858Z,102061.21
2018-07-07T11:03:58.271Z,102067.66
2018-07-07T11:05:03.676Z,102060.2
2018-07-07T11:06:10.075Z,102064.82
2018-07-07T11:07:15.478Z,102064.67
2018-07-07T11:08:20.907Z,102066.34
2018-07-07T11:09:26.316Z,102063.45
2018-07-07T11:10:31.722Z,102067.5
2018-07-07T11:11:37.128Z,102066.14
2018-07-07T11:12:42.524Z,102068.85
2018-07-07T11:13:47.937Z,102068.32
2018-07-07T11:14:53.344Z,102062.92
2018-07-07T11:15:58.745Z,102061.1
2018-07-07T11:17:04.175Z,102061.76
2018-07-07T11:18:09.580Z,102056.59
2018-07-07T11:19:14.991Z,102052.73
2018-07-07T11:20:20.392Z,102048.09
2018-07-07T11:21:25.809Z,102046.31
2018-07-07T11:22:31.225Z,102052.79
2018-07-07T11:23:36.634Z,102050.1
2018-07-07T11:24:42.048Z,102049.2
2018-07-07T11:25:48.440Z,102044.73
2018-07-07T11:26:53.849Z,102048.99
2018-07-07T11:27:59.253Z,102049.78
2018-07-07T11:29:04.672Z,102048.68
2018-07-07T11:30:10.083Z,102046.02
2018-07-07T11:31:15.492Z,102041.15
2018-07-07T11:32:20.899Z,102041.73
2018-07-07T11:33:26.303Z,102045.68
2018-07-07T11:34:31.722Z,102042.93
2018-07-07T11:35:38.116Z,102042.7
2018-07-07T11:36:43.765Z,102040.4
2018-07-07T11:37:48.941Z,102046.64
2018-07-07T11:38:54.365Z,102047.47
2018-07-07T11:39:59.776Z,102041
2018-07-07T11:41:05.182Z,102043.81
2018-07-07T11:42:10.630Z,102041.25
2018-07-07T11:43:15.982Z,102049.54
2018-07-07T11:44:21.398Z,102042.65
2018-07-07T11:45:26.807Z,102042.98
2018-07-07T11:46:32.220Z,102044.48
2018-07-07T11:47:37.625Z,102038.42
2018-07-07T11:48:43.061Z,102042.48
2018-07-07T11:49:48.495Z,102041.35
2018-07-07T11:50:53.902Z,102040.64
2018-07-07T11:51:59.308Z,102046.93
2018-07-07T11:53:04.718Z,102043.18
2018-07-07T11:54:10.131Z,102042.28
2018-07-07T11:55:15.536Z,102039.55
2018-07-07T11:56:20.938Z,102041.26
2018-07-07T11:57:26.347Z,102043.5
2018-07-07T11:58:31.752Z,102038.87
2018-07-07T11:59:37.168Z,102041.03
2018-07-07T12:00:42.576Z,102037.2
2018-07-07T12:01:47.981Z,102036.12
2018-07-07T12:02:53.385Z,102040.81
2018-07-07T12:03:58.812Z,102036.82
2018-07-07T12:05:04.218Z,102033.3
2018-07-07T12:06:09.624Z,102031.35
2018-07-07T12:07:15.041Z,102024.62
2018-07-07T12:08:20.529Z,102032.34
2018-07-07T12:09:25.962Z,102036.82
2018-07-07T12:10:31.364Z,102034.26
2018-07-07T12:11:36.825Z,102036.94
2018-07-07T12:12:42.171Z,102043.31
2018-07-07T12:13:47.580Z,102031.56
2018-07-07T12:14:52.999Z,102034.85
2018-07-07T12:15:58.412Z,102035.4
2018-07-07T12:17:04.812Z,102033.95
2018-07-07T12:18:11.214Z,102037.05
2018-07-07T12:19:16.628Z,102035.31
2018-07-07T12:20:22.035Z,102038.87
2018-07-07T12:21:27.442Z,102040.36
2018-07-07T12:22:32.848Z,102035.71
2018-07-07T12:23:38.862Z,102032.82
2018-07-07T12:24:44.314Z,102037.85
2018-07-07T12:25:49.684Z,102031.67
2018-07-07T12:26:55.092Z,102030.67
2018-07-07T12:28:00.496Z,102033.17
2018-07-07T12:29:05.912Z,102029
2018-07-07T12:30:11.328Z,102030.03